sensor_id;sensor_type;location;lat;lon;timestamp;temperature;humidity
43043;DHT22;28667;50.758;6.096;2023-07-13T00:01:29;15.60;98.40
43043;DHT22;28667;50.758;6.096;2023-07-13T00:03:56;15.50;98.40
43043;DHT22;28667;50.758;6.096;2023-07-13T00:06:23;15.50;98.60
43043;DHT22;28667;50.758;6.096;2023-07-13T00:08:49;15.40;98.80
43043;DHT22;28667;50.758;6.096;2023-07-13T00:11:16;15.40;98.70
43043;DHT22;28667;50.758;6.096;2023-07-13T00:13:43;15.40;98.90
43043;DHT22;28667;50.758;6.096;2023-07-13T00:16:10;15.30;99.20
43043;DHT22;28667;50.758;6.096;2023-07-13T00:18:37;15.30;99.40
43043;DHT22;28667;50.758;6.096;2023-07-13T00:21:03;15.30;99.40
43043;DHT22;28667;50.758;6.096;2023-07-13T00:23:34;15.30;99.40
43043;DHT22;28667;50.758;6.096;2023-07-13T00:26:01;15.20;99.60
43043;DHT22;28667;50.758;6.096;2023-07-13T00:28:27;15.10;99.90
43043;DHT22;28667;50.758;6.096;2023-07-13T00:30:53;15.10;99.90
43043;DHT22;28667;50.758;6.096;2023-07-13T00:33:20;15.10;99.90
43043;DHT22;28667;50.758;6.096;2023-07-13T00:35:45;15.10;99.90
43043;DHT22;28667;50.758;6.096;2023-07-13T00:38:11;15.00;99.90
43043;DHT22;28667;50.758;6.096;2023-07-13T00:40:37;15.00;99.90
43043;DHT22;28667;50.758;6.096;2023-07-13T00:43:09;15.00;99.90
43043;DHT22;28667;50.758;6.096;2023-07-13T00:48:16;14.90;99.90
43043;DHT22;28667;50.758;6.096;2023-07-13T00:50:43;14.90;99.90
43043;DHT22;28667;50.758;6.096;2023-07-13T00:53:10;14.90;99.90
43043;DHT22;28667;50.758;6.096;2023-07-13T00:55:37;14.80;99.90
43043;DHT22;28667;50.758;6.096;2023-07-13T00:58:03;14.80;99.90
43043;DHT22;28667;50.758;6.096;2023-07-13T01:00:35;14.80;99.90
43043;DHT22;28667;50.758;6.096;2023-07-13T01:03:03;14.70;99.90
43043;DHT22;28667;50.758;6.096;2023-07-13T01:05:31;14.70;99.90
43043;DHT22;28667;50.758;6.096;2023-07-13T01:07:59;14.70;99.90
43043;DHT22;28667;50.758;6.096;2023-07-13T01:10:26;14.70;99.90
43043;DHT22;28667;50.758;6.096;2023-07-13T01:12:53;14.70;99.90
43043;DHT22;28667;50.758;6.096;2023-07-13T01:18:00;14.70;99.90
43043;DHT22;28667;50.758;6.096;2023-07-13T01:20:25;14.60;99.90
43043;DHT22;28667;50.758;6.096;2023-07-13T01:22:51;14.60;99.90
43043;DHT22;28667;50.758;6.096;2023-07-13T01:25:17;14.60;99.90
43043;DHT22;28667;50.758;6.096;2023-07-13T01:27:44;14.60;99.90
43043;DHT22;28667;50.758;6.096;2023-07-13T01:30:10;14.60;99.90
43043;DHT22;28667;50.758;6.096;2023-07-13T01:32:36;14.50;99.90
43043;DHT22;28667;50.758;6.096;2023-07-13T01:35:02;14.50;99.90
43043;DHT22;28667;50.758;6.096;2023-07-13T01:37:29;14.50;99.90
43043;DHT22;28667;50.758;6.096;2023-07-13T01:39:59;14.50;99.90
43043;DHT22;28667;50.758;6.096;2023-07-13T01:42:25;14.50;99.90
43043;DHT22;28667;50.758;6.096;2023-07-13T01:44:51;14.50;99.90
43043;DHT22;28667;50.758;6.096;2023-07-13T01:47:16;14.50;99.90
43043;DHT22;28667;50.758;6.096;2023-07-13T01:49:42;14.50;99.90
43043;DHT22;28667;50.758;6.096;2023-07-13T01:52:08;14.50;99.90
43043;DHT22;28667;50.758;6.096;2023-07-13T01:54:33;14.40;99.90
43043;DHT22;28667;50.758;6.096;2023-07-13T01:56:59;14.40;99.90
43043;DHT22;28667;50.758;6.096;2023-07-13T01:59:25;14.50;99.90
43043;DHT22;28667;50.758;6.096;2023-07-13T02:01:51;14.50;99.90
43043;DHT22;28667;50.758;6.096;2023-07-13T02:04:17;14.50;99.90
43043;DHT22;28667;50.758;6.096;2023-07-13T02:06:42;14.50;99.90
43043;DHT22;28667;50.758;6.096;2023-07-13T02:09:08;14.50;99.90
43043;DHT22;28667;50.758;6.096;2023-07-13T02:11:34;14.40;99.90
43043;DHT22;28667;50.758;6.096;2023-07-13T02:14:00;14.50;99.90
43043;DHT22;28667;50.758;6.096;2023-07-13T02:16:30;14.40;99.90
43043;DHT22;28667;50.758;6.096;2023-07-13T02:18:56;14.50;99.90
43043;DHT22;28667;50.758;6.096;2023-07-13T02:21:23;14.50;99.90
43043;DHT22;28667;50.758;6.096;2023-07-13T02:23:51;14.50;99.90
43043;DHT22;28667;50.758;6.096;2023-07-13T02:26:18;14.50;99.90
43043;DHT22;28667;50.758;6.096;2023-07-13T02:28:44;14.50;99.90
43043;DHT22;28667;50.758;6.096;2023-07-13T02:31:12;14.40;99.90
43043;DHT22;28667;50.758;6.096;2023-07-13T02:33:38;14.50;99.90
43043;DHT22;28667;50.758;6.096;2023-07-13T02:36:04;14.40;99.90
43043;DHT22;28667;50.758;6.096;2023-07-13T02:38:32;14.40;99.90
43043;DHT22;28667;50.758;6.096;2023-07-13T02:41:02;14.40;99.90
43043;DHT22;28667;50.758;6.096;2023-07-13T02:43:28;14.40;99.90
43043;DHT22;28667;50.758;6.096;2023-07-13T02:45:53;14.30;99.90
43043;DHT22;28667;50.758;6.096;2023-07-13T02:48:19;14.30;99.90
43043;DHT22;28667;50.758;6.096;2023-07-13T02:50:45;14.40;99.90
43043;DHT22;28667;50.758;6.096;2023-07-13T02:53:11;14.40;99.90
43043;DHT22;28667;50.758;6.096;2023-07-13T02:55:37;14.40;99.90
43043;DHT22;28667;50.758;6.096;2023-07-13T02:58:03;14.40;99.90
43043;DHT22;28667;50.758;6.096;2023-07-13T03:00:29;14.40;99.90
43043;DHT22;28667;50.758;6.096;2023-07-13T03:02:54;14.40;99.90
43043;DHT22;28667;50.758;6.096;2023-07-13T03:05:24;14.40;99.90
43043;DHT22;28667;50.758;6.096;2023-07-13T03:07:50;14.30;99.90
43043;DHT22;28667;50.758;6.096;2023-07-13T03:10:16;14.30;99.90
43043;DHT22;28667;50.758;6.096;2023-07-13T03:12:47;14.30;99.90
43043;DHT22;28667;50.758;6.096;2023-07-13T03:15:21;14.30;99.90
43043;DHT22;28667;50.758;6.096;2023-07-13T03:17:48;14.30;99.90
43043;DHT22;28667;50.758;6.096;2023-07-13T03:20:14;14.30;99.90
43043;DHT22;28667;50.758;6.096;2023-07-13T03:22:40;14.30;99.90
43043;DHT22;28667;50.758;6.096;2023-07-13T03:25:07;14.30;99.90
43043;DHT22;28667;50.758;6.096;2023-07-13T03:27:33;14.30;99.90
43043;DHT22;28667;50.758;6.096;2023-07-13T03:29:59;14.30;99.90
43043;DHT22;28667;50.758;6.096;2023-07-13T03:32:24;14.30;99.90
43043;DHT22;28667;50.758;6.096;2023-07-13T03:34:50;14.30;99.90
43043;DHT22;28667;50.758;6.096;2023-07-13T03:37:16;14.20;99.90
43043;DHT22;28667;50.758;6.096;2023-07-13T03:39:42;14.20;99.90
43043;DHT22;28667;50.758;6.096;2023-07-13T03:42:08;14.20;99.90
43043;DHT22;28667;50.758;6.096;2023-07-13T03:44:35;14.20;99.90
43043;DHT22;28667;50.758;6.096;2023-07-13T03:47:02;14.20;99.90
43043;DHT22;28667;50.758;6.096;2023-07-13T03:49:28;14.10;99.90
43043;DHT22;28667;50.758;6.096;2023-07-13T03:51:54;14.20;99.90
43043;DHT22;28667;50.758;6.096;2023-07-13T03:54:20;14.20;99.90
43043;DHT22;28667;50.758;6.096;2023-07-13T03:56:45;14.20;99.90
43043;DHT22;28667;50.758;6.096;2023-07-13T03:59:12;14.20;99.90
43043;DHT22;28667;50.758;6.096;2023-07-13T04:01:38;14.20;99.90
43043;DHT22;28667;50.758;6.096;2023-07-13T04:04:04;14.20;99.90
43043;DHT22;28667;50.758;6.096;2023-07-13T04:06:32;14.20;99.90
43043;DHT22;28667;50.758;6.096;2023-07-13T04:09:00;14.20;99.90
43043;DHT22;28667;50.758;6.096;2023-07-13T04:11:28;14.20;99.90
43043;DHT22;28667;50.758;6.096;2023-07-13T04:13:55;14.20;99.90
43043;DHT22;28667;50.758;6.096;2023-07-13T04:16:21;14.20;99.90
43043;DHT22;28667;50.758;6.096;2023-07-13T04:18:47;14.20;99.90
43043;DHT22;28667;50.758;6.096;2023-07-13T04:21:14;14.20;99.90
43043;DHT22;28667;50.758;6.096;2023-07-13T04:23:40;14.30;99.90
43043;DHT22;28667;50.758;6.096;2023-07-13T04:26:06;14.20;99.90
43043;DHT22;28667;50.758;6.096;2023-07-13T04:28:32;14.20;99.90
43043;DHT22;28667;50.758;6.096;2023-07-13T04:30:58;14.20;99.90
43043;DHT22;28667;50.758;6.096;2023-07-13T04:33:27;14.30;99.90
43043;DHT22;28667;50.758;6.096;2023-07-13T04:35:54;14.30;99.90
43043;DHT22;28667;50.758;6.096;2023-07-13T04:38:26;14.30;99.90
43043;DHT22;28667;50.758;6.096;2023-07-13T04:40:57;14.30;99.90
43043;DHT22;28667;50.758;6.096;2023-07-13T04:43:24;14.40;99.90
43043;DHT22;28667;50.758;6.096;2023-07-13T04:45:51;14.50;99.90
43043;DHT22;28667;50.758;6.096;2023-07-13T04:48:17;14.50;99.90
43043;DHT22;28667;50.758;6.096;2023-07-13T04:50:43;14.60;99.90
43043;DHT22;28667;50.758;6.096;2023-07-13T04:53:10;14.60;99.90
43043;DHT22;28667;50.758;6.096;2023-07-13T04:55:36;14.70;99.90
43043;DHT22;28667;50.758;6.096;2023-07-13T04:58:02;14.70;99.90
43043;DHT22;28667;50.758;6.096;2023-07-13T05:00:29;14.90;99.90
43043;DHT22;28667;50.758;6.096;2023-07-13T05:02:56;15.10;99.90
43043;DHT22;28667;50.758;6.096;2023-07-13T05:05:23;15.10;99.90
43043;DHT22;28667;50.758;6.096;2023-07-13T05:07:49;15.30;99.90
43043;DHT22;28667;50.758;6.096;2023-07-13T05:10:15;15.30;99.90
43043;DHT22;28667;50.758;6.096;2023-07-13T05:12:41;15.40;99.90
43043;DHT22;28667;50.758;6.096;2023-07-13T05:15:07;15.50;99.90
43043;DHT22;28667;50.758;6.096;2023-07-13T05:17:33;15.60;99.90
43043;DHT22;28667;50.758;6.096;2023-07-13T05:19:59;15.60;99.90
43043;DHT22;28667;50.758;6.096;2023-07-13T05:22:25;15.60;99.90
43043;DHT22;28667;50.758;6.096;2023-07-13T05:24:50;15.60;99.90
43043;DHT22;28667;50.758;6.096;2023-07-13T05:27:16;15.60;99.90
43043;DHT22;28667;50.758;6.096;2023-07-13T05:29:42;15.50;99.90
43043;DHT22;28667;50.758;6.096;2023-07-13T05:32:07;15.50;99.90
43043;DHT22;28667;50.758;6.096;2023-07-13T05:34:33;15.50;99.90
43043;DHT22;28667;50.758;6.096;2023-07-13T05:36:59;15.50;99.90
43043;DHT22;28667;50.758;6.096;2023-07-13T05:39:25;15.50;99.90
43043;DHT22;28667;50.758;6.096;2023-07-13T05:41:51;15.60;99.90
43043;DHT22;28667;50.758;6.096;2023-07-13T05:44:17;15.50;99.90
43043;DHT22;28667;50.758;6.096;2023-07-13T05:46:44;15.60;99.90
43043;DHT22;28667;50.758;6.096;2023-07-13T05:49:10;15.60;99.90
43043;DHT22;28667;50.758;6.096;2023-07-13T05:51:35;15.60;99.90
43043;DHT22;28667;50.758;6.096;2023-07-13T05:54:01;15.60;99.90
43043;DHT22;28667;50.758;6.096;2023-07-13T05:56:27;15.70;99.90
43043;DHT22;28667;50.758;6.096;2023-07-13T05:58:52;15.80;99.90
43043;DHT22;28667;50.758;6.096;2023-07-13T06:01:18;15.80;99.90
43043;DHT22;28667;50.758;6.096;2023-07-13T06:03:46;15.80;99.90
43043;DHT22;28667;50.758;6.096;2023-07-13T06:06:12;15.90;99.90
43043;DHT22;28667;50.758;6.096;2023-07-13T06:08:39;16.00;99.90
43043;DHT22;28667;50.758;6.096;2023-07-13T06:11:05;16.10;99.90
43043;DHT22;28667;50.758;6.096;2023-07-13T06:13:32;16.20;99.90
43043;DHT22;28667;50.758;6.096;2023-07-13T06:15:58;16.20;99.90
43043;DHT22;28667;50.758;6.096;2023-07-13T06:18:24;16.30;99.90
43043;DHT22;28667;50.758;6.096;2023-07-13T06:20:50;16.30;99.90
43043;DHT22;28667;50.758;6.096;2023-07-13T06:23:16;16.40;99.90
43043;DHT22;28667;50.758;6.096;2023-07-13T06:25:43;16.40;99.90
43043;DHT22;28667;50.758;6.096;2023-07-13T06:28:09;16.60;99.90
43043;DHT22;28667;50.758;6.096;2023-07-13T06:30:35;16.70;99.90
43043;DHT22;28667;50.758;6.096;2023-07-13T06:33:00;16.70;99.90
43043;DHT22;28667;50.758;6.096;2023-07-13T06:35:26;16.90;99.90
43043;DHT22;28667;50.758;6.096;2023-07-13T06:37:52;17.00;99.90
43043;DHT22;28667;50.758;6.096;2023-07-13T06:40:17;17.00;99.90
43043;DHT22;28667;50.758;6.096;2023-07-13T06:42:43;17.10;99.90
43043;DHT22;28667;50.758;6.096;2023-07-13T06:45:09;17.10;99.90
43043;DHT22;28667;50.758;6.096;2023-07-13T06:47:35;17.10;99.90
43043;DHT22;28667;50.758;6.096;2023-07-13T06:50:01;17.10;99.90
43043;DHT22;28667;50.758;6.096;2023-07-13T06:52:26;17.20;99.90
43043;DHT22;28667;50.758;6.096;2023-07-13T06:54:52;17.30;99.90
43043;DHT22;28667;50.758;6.096;2023-07-13T06:57:18;17.40;99.90
43043;DHT22;28667;50.758;6.096;2023-07-13T06:59:43;17.50;99.90
43043;DHT22;28667;50.758;6.096;2023-07-13T07:02:10;17.50;99.90
43043;DHT22;28667;50.758;6.096;2023-07-13T07:04:37;17.60;99.90
43043;DHT22;28667;50.758;6.096;2023-07-13T07:07:02;17.70;99.90
43043;DHT22;28667;50.758;6.096;2023-07-13T07:09:28;17.70;99.90
43043;DHT22;28667;50.758;6.096;2023-07-13T07:11:55;17.80;99.90
43043;DHT22;28667;50.758;6.096;2023-07-13T07:14:21;17.90;99.90
43043;DHT22;28667;50.758;6.096;2023-07-13T07:16:47;17.90;99.90
43043;DHT22;28667;50.758;6.096;2023-07-13T07:19:13;17.90;99.90
43043;DHT22;28667;50.758;6.096;2023-07-13T07:21:38;18.00;99.90
43043;DHT22;28667;50.758;6.096;2023-07-13T07:24:05;18.00;99.90
43043;DHT22;28667;50.758;6.096;2023-07-13T07:26:31;18.10;99.90
43043;DHT22;28667;50.758;6.096;2023-07-13T07:28:57;18.10;99.90
43043;DHT22;28667;50.758;6.096;2023-07-13T07:31:22;18.20;99.90
43043;DHT22;28667;50.758;6.096;2023-07-13T07:33:48;18.20;99.90
43043;DHT22;28667;50.758;6.096;2023-07-13T07:36:16;18.40;99.90
43043;DHT22;28667;50.758;6.096;2023-07-13T07:38:43;18.50;99.90
43043;DHT22;28667;50.758;6.096;2023-07-13T07:41:09;18.50;99.90
43043;DHT22;28667;50.758;6.096;2023-07-13T07:43:35;18.60;99.90
43043;DHT22;28667;50.758;6.096;2023-07-13T07:46:01;18.70;99.90
43043;DHT22;28667;50.758;6.096;2023-07-13T07:48:27;18.80;99.90
43043;DHT22;28667;50.758;6.096;2023-07-13T07:50:53;18.90;99.90
43043;DHT22;28667;50.758;6.096;2023-07-13T07:53:19;19.00;99.90
43043;DHT22;28667;50.758;6.096;2023-07-13T07:55:44;19.10;99.90
43043;DHT22;28667;50.758;6.096;2023-07-13T07:58:11;19.20;99.90
43043;DHT22;28667;50.758;6.096;2023-07-13T08:00:36;19.20;99.90
43043;DHT22;28667;50.758;6.096;2023-07-13T08:03:02;19.30;99.90
43043;DHT22;28667;50.758;6.096;2023-07-13T08:05:28;19.40;99.90
43043;DHT22;28667;50.758;6.096;2023-07-13T08:07:54;19.30;99.90
43043;DHT22;28667;50.758;6.096;2023-07-13T08:10:20;19.10;99.90
43043;DHT22;28667;50.758;6.096;2023-07-13T08:12:46;19.10;99.90
43043;DHT22;28667;50.758;6.096;2023-07-13T08:15:15;19.10;99.90
43043;DHT22;28667;50.758;6.096;2023-07-13T08:17:41;18.90;99.90
43043;DHT22;28667;50.758;6.096;2023-07-13T08:20:07;18.80;99.90
43043;DHT22;28667;50.758;6.096;2023-07-13T08:22:35;18.70;99.90
43043;DHT22;28667;50.758;6.096;2023-07-13T08:25:01;18.60;99.90
43043;DHT22;28667;50.758;6.096;2023-07-13T08:27:27;18.50;99.90
43043;DHT22;28667;50.758;6.096;2023-07-13T08:29:53;18.50;99.90
43043;DHT22;28667;50.758;6.096;2023-07-13T08:32:20;18.40;99.90
43043;DHT22;28667;50.758;6.096;2023-07-13T08:34:47;18.30;99.90
43043;DHT22;28667;50.758;6.096;2023-07-13T08:37:13;18.30;99.90
43043;DHT22;28667;50.758;6.096;2023-07-13T08:39:39;18.40;99.90
43043;DHT22;28667;50.758;6.096;2023-07-13T08:42:10;18.40;99.90
43043;DHT22;28667;50.758;6.096;2023-07-13T08:47:40;18.50;99.90
43043;DHT22;28667;50.758;6.096;2023-07-13T08:50:13;18.50;99.90
43043;DHT22;28667;50.758;6.096;2023-07-13T08:52:41;18.70;99.90
43043;DHT22;28667;50.758;6.096;2023-07-13T08:55:24;18.70;99.90
43043;DHT22;28667;50.758;6.096;2023-07-13T08:58:05;19.00;99.90
43043;DHT22;28667;50.758;6.096;2023-07-13T09:01:17;19.20;99.90
43043;DHT22;28667;50.758;6.096;2023-07-13T09:04:09;19.30;99.90
43043;DHT22;28667;50.758;6.096;2023-07-13T09:12:18;19.60;99.90
43043;DHT22;28667;50.758;6.096;2023-07-13T09:14:48;19.70;99.90
43043;DHT22;28667;50.758;6.096;2023-07-13T09:17:25;19.70;99.90
43043;DHT22;28667;50.758;6.096;2023-07-13T09:20:21;19.70;99.90
43043;DHT22;28667;50.758;6.096;2023-07-13T09:22:49;19.60;99.90
43043;DHT22;28667;50.758;6.096;2023-07-13T09:25:27;19.80;99.90
43043;DHT22;28667;50.758;6.096;2023-07-13T09:28:01;19.80;99.90
43043;DHT22;28667;50.758;6.096;2023-07-13T09:30:38;19.90;99.90
43043;DHT22;28667;50.758;6.096;2023-07-13T09:33:05;20.00;99.90
43043;DHT22;28667;50.758;6.096;2023-07-13T09:35:31;20.20;99.90
43043;DHT22;28667;50.758;6.096;2023-07-13T09:38:10;20.40;99.90
43043;DHT22;28667;50.758;6.096;2023-07-13T09:44:11;21.00;98.50
43043;DHT22;28667;50.758;6.096;2023-07-13T09:46:46;21.20;98.20
43043;DHT22;28667;50.758;6.096;2023-07-13T09:49:12;21.30;97.90
43043;DHT22;28667;50.758;6.096;2023-07-13T09:51:41;21.30;97.60
43043;DHT22;28667;50.758;6.096;2023-07-13T09:54:21;21.30;97.90
43043;DHT22;28667;50.758;6.096;2023-07-13T09:56:57;21.20;98.00
43043;DHT22;28667;50.758;6.096;2023-07-13T09:59:27;21.30;98.00
43043;DHT22;28667;50.758;6.096;2023-07-13T10:01:54;21.40;97.90
43043;DHT22;28667;50.758;6.096;2023-07-13T10:04:27;21.50;97.10
43043;DHT22;28667;50.758;6.096;2023-07-13T10:07:08;21.50;96.80
43043;DHT22;28667;50.758;6.096;2023-07-13T10:09:34;21.50;96.70
43043;DHT22;28667;50.758;6.096;2023-07-13T10:12:00;21.60;97.00
43043;DHT22;28667;50.758;6.096;2023-07-13T10:14:27;21.80;96.30
43043;DHT22;28667;50.758;6.096;2023-07-13T10:16:59;22.00;96.00
43043;DHT22;28667;50.758;6.096;2023-07-13T10:19:31;22.00;96.10
43043;DHT22;28667;50.758;6.096;2023-07-13T10:22:27;22.20;95.40
43043;DHT22;28667;50.758;6.096;2023-07-13T10:24:55;22.30;94.70
43043;DHT22;28667;50.758;6.096;2023-07-13T10:27:29;22.30;94.90
43043;DHT22;28667;50.758;6.096;2023-07-13T10:32:45;22.40;94.90
43043;DHT22;28667;50.758;6.096;2023-07-13T10:35:14;22.30;95.00
43043;DHT22;28667;50.758;6.096;2023-07-13T10:37:51;22.40;94.60
43043;DHT22;28667;50.758;6.096;2023-07-13T10:40:28;22.40;94.80
43043;DHT22;28667;50.758;6.096;2023-07-13T10:42:59;22.40;94.80
43043;DHT22;28667;50.758;6.096;2023-07-13T10:45:34;22.30;94.80
43043;DHT22;28667;50.758;6.096;2023-07-13T10:48:02;22.20;94.90
43043;DHT22;28667;50.758;6.096;2023-07-13T10:50:30;22.10;94.90
43043;DHT22;28667;50.758;6.096;2023-07-13T10:53:15;22.20;94.80
43043;DHT22;28667;50.758;6.096;2023-07-13T10:58:38;22.10;95.00
43043;DHT22;28667;50.758;6.096;2023-07-13T11:01:09;22.00;95.00
43043;DHT22;28667;50.758;6.096;2023-07-13T11:06:37;22.10;95.00
43043;DHT22;28667;50.758;6.096;2023-07-13T11:11:47;22.20;94.20
43043;DHT22;28667;50.758;6.096;2023-07-13T11:14:35;22.20;94.40
43043;DHT22;28667;50.758;6.096;2023-07-13T11:19:51;21.90;94.90
43043;DHT22;28667;50.758;6.096;2023-07-13T11:22:24;21.70;94.90
43043;DHT22;28667;50.758;6.096;2023-07-13T11:24:55;21.70;95.00
43043;DHT22;28667;50.758;6.096;2023-07-13T11:30:31;21.60;95.30
43043;DHT22;28667;50.758;6.096;2023-07-13T11:36:00;21.70;95.20
43043;DHT22;28667;50.758;6.096;2023-07-13T11:38:38;21.80;95.20
43043;DHT22;28667;50.758;6.096;2023-07-13T11:41:22;21.90;94.70
43043;DHT22;28667;50.758;6.096;2023-07-13T11:43:54;21.90;95.40
43043;DHT22;28667;50.758;6.096;2023-07-13T11:46:22;22.00;95.10
43043;DHT22;28667;50.758;6.096;2023-07-13T11:48:49;22.00;95.00
43043;DHT22;28667;50.758;6.096;2023-07-13T11:51:30;22.00;95.30
43043;DHT22;28667;50.758;6.096;2023-07-13T11:54:01;22.10;94.70
43043;DHT22;28667;50.758;6.096;2023-07-13T11:56:27;22.10;93.70
43043;DHT22;28667;50.758;6.096;2023-07-13T11:58:55;22.10;93.90
43043;DHT22;28667;50.758;6.096;2023-07-13T12:01:24;22.00;94.10
43043;DHT22;28667;50.758;6.096;2023-07-13T12:03:51;21.90;94.30
43043;DHT22;28667;50.758;6.096;2023-07-13T12:06:34;21.90;94.50
43043;DHT22;28667;50.758;6.096;2023-07-13T12:09:12;22.00;94.30
43043;DHT22;28667;50.758;6.096;2023-07-13T12:11:40;21.90;94.00
43043;DHT22;28667;50.758;6.096;2023-07-13T12:14:16;21.90;93.90
43043;DHT22;28667;50.758;6.096;2023-07-13T12:16:42;22.00;94.00
43043;DHT22;28667;50.758;6.096;2023-07-13T12:19:22;22.10;93.70
43043;DHT22;28667;50.758;6.096;2023-07-13T12:21:49;22.40;93.30
43043;DHT22;28667;50.758;6.096;2023-07-13T12:24:21;22.50;93.00
43043;DHT22;28667;50.758;6.096;2023-07-13T12:26:59;22.60;92.10
43043;DHT22;28667;50.758;6.096;2023-07-13T12:29:26;22.80;92.00
43043;DHT22;28667;50.758;6.096;2023-07-13T12:31:52;22.80;91.40
43043;DHT22;28667;50.758;6.096;2023-07-13T12:34:22;22.80;91.70
43043;DHT22;28667;50.758;6.096;2023-07-13T12:36:53;22.80;92.00
43043;DHT22;28667;50.758;6.096;2023-07-13T12:39:37;22.80;91.90
43043;DHT22;28667;50.758;6.096;2023-07-13T12:42:27;22.80;91.60
43043;DHT22;28667;50.758;6.096;2023-07-13T12:44:57;22.80;91.50
43043;DHT22;28667;50.758;6.096;2023-07-13T12:47:24;22.80;91.50
43043;DHT22;28667;50.758;6.096;2023-07-13T12:49:54;22.90;91.60
43043;DHT22;28667;50.758;6.096;2023-07-13T12:52:29;22.90;91.90
43043;DHT22;28667;50.758;6.096;2023-07-13T12:55:10;22.90;91.70
43043;DHT22;28667;50.758;6.096;2023-07-13T12:57:54;23.10;91.70
43043;DHT22;28667;50.758;6.096;2023-07-13T13:02:56;23.50;91.80
43043;DHT22;28667;50.758;6.096;2023-07-13T13:05:26;23.60;91.60
43043;DHT22;28667;50.758;6.096;2023-07-13T13:07:52;23.60;90.70
43043;DHT22;28667;50.758;6.096;2023-07-13T13:10:18;23.50;90.80
43043;DHT22;28667;50.758;6.096;2023-07-13T13:12:44;23.50;90.70
43043;DHT22;28667;50.758;6.096;2023-07-13T13:15:10;23.50;90.20
43043;DHT22;28667;50.758;6.096;2023-07-13T13:17:37;23.60;90.30
43043;DHT22;28667;50.758;6.096;2023-07-13T13:20:18;23.50;88.40
43043;DHT22;28667;50.758;6.096;2023-07-13T13:22:44;23.40;89.00
43043;DHT22;28667;50.758;6.096;2023-07-13T13:25:11;23.30;90.00
43043;DHT22;28667;50.758;6.096;2023-07-13T13:27:39;23.20;90.40
43043;DHT22;28667;50.758;6.096;2023-07-13T13:30:17;23.30;90.60
43043;DHT22;28667;50.758;6.096;2023-07-13T13:32:44;23.30;90.90
43043;DHT22;28667;50.758;6.096;2023-07-13T13:35:15;23.40;90.90
43043;DHT22;28667;50.758;6.096;2023-07-13T13:37:43;23.50;91.00
43043;DHT22;28667;50.758;6.096;2023-07-13T13:40:15;23.60;90.10
43043;DHT22;28667;50.758;6.096;2023-07-13T13:42:41;23.70;89.90
43043;DHT22;28667;50.758;6.096;2023-07-13T13:45:09;23.80;89.70
43043;DHT22;28667;50.758;6.096;2023-07-13T13:47:35;23.80;89.20
43043;DHT22;28667;50.758;6.096;2023-07-13T13:50:10;23.90;88.80
43043;DHT22;28667;50.758;6.096;2023-07-13T13:52:36;24.00;88.30
43043;DHT22;28667;50.758;6.096;2023-07-13T13:55:11;23.90;87.90
43043;DHT22;28667;50.758;6.096;2023-07-13T13:57:37;24.10;88.30
43043;DHT22;28667;50.758;6.096;2023-07-13T14:00:03;24.30;87.90
43043;DHT22;28667;50.758;6.096;2023-07-13T14:02:31;24.30;87.60
43043;DHT22;28667;50.758;6.096;2023-07-13T14:04:59;24.40;87.30
43043;DHT22;28667;50.758;6.096;2023-07-13T14:07:26;24.40;87.50
43043;DHT22;28667;50.758;6.096;2023-07-13T14:09:54;24.40;88.10
43043;DHT22;28667;50.758;6.096;2023-07-13T14:12:22;24.60;88.10
43043;DHT22;28667;50.758;6.096;2023-07-13T14:14:48;24.70;87.40
43043;DHT22;28667;50.758;6.096;2023-07-13T14:17:21;24.80;86.40
43043;DHT22;28667;50.758;6.096;2023-07-13T14:19:49;24.80;85.80
43043;DHT22;28667;50.758;6.096;2023-07-13T14:22:17;24.90;86.10
43043;DHT22;28667;50.758;6.096;2023-07-13T14:24:43;25.00;85.50
43043;DHT22;28667;50.758;6.096;2023-07-13T14:27:11;25.00;84.90
43043;DHT22;28667;50.758;6.096;2023-07-13T14:29:37;25.00;85.20
43043;DHT22;28667;50.758;6.096;2023-07-13T14:32:04;25.10;83.90
43043;DHT22;28667;50.758;6.096;2023-07-13T14:34:30;25.10;83.80
43043;DHT22;28667;50.758;6.096;2023-07-13T14:36:56;25.10;83.40
43043;DHT22;28667;50.758;6.096;2023-07-13T14:39:25;24.90;83.60
43043;DHT22;28667;50.758;6.096;2023-07-13T14:41:53;24.80;83.40
43043;DHT22;28667;50.758;6.096;2023-07-13T14:44:27;24.60;84.10
43043;DHT22;28667;50.758;6.096;2023-07-13T14:46:55;24.20;84.30
43043;DHT22;28667;50.758;6.096;2023-07-13T14:52:14;23.90;85.40
43043;DHT22;28667;50.758;6.096;2023-07-13T14:54:41;23.40;86.40
43043;DHT22;28667;50.758;6.096;2023-07-13T14:57:17;23.30;87.60
43043;DHT22;28667;50.758;6.096;2023-07-13T14:59:44;23.00;88.20
43043;DHT22;28667;50.758;6.096;2023-07-13T15:04:47;22.70;89.60
43043;DHT22;28667;50.758;6.096;2023-07-13T15:07:13;22.60;89.80
43043;DHT22;28667;50.758;6.096;2023-07-13T15:09:41;22.50;90.20
43043;DHT22;28667;50.758;6.096;2023-07-13T15:12:07;22.40;90.40
43043;DHT22;28667;50.758;6.096;2023-07-13T15:14:33;22.30;90.40
43043;DHT22;28667;50.758;6.096;2023-07-13T15:16:59;22.30;90.60
43043;DHT22;28667;50.758;6.096;2023-07-13T15:19:25;22.20;90.90
43043;DHT22;28667;50.758;6.096;2023-07-13T15:21:52;22.10;91.30
43043;DHT22;28667;50.758;6.096;2023-07-13T15:24:20;22.10;91.80
43043;DHT22;28667;50.758;6.096;2023-07-13T15:26:47;22.10;92.00
43043;DHT22;28667;50.758;6.096;2023-07-13T15:29:15;22.00;92.30
43043;DHT22;28667;50.758;6.096;2023-07-13T15:31:41;22.10;92.80
43043;DHT22;28667;50.758;6.096;2023-07-13T15:34:15;22.00;92.60
43043;DHT22;28667;50.758;6.096;2023-07-13T15:36:41;21.80;92.90
43043;DHT22;28667;50.758;6.096;2023-07-13T15:39:14;21.70;93.50
43043;DHT22;28667;50.758;6.096;2023-07-13T15:41:41;21.70;93.50
43043;DHT22;28667;50.758;6.096;2023-07-13T15:44:22;21.70;93.60
43043;DHT22;28667;50.758;6.096;2023-07-13T15:46:48;21.70;93.60
43043;DHT22;28667;50.758;6.096;2023-07-13T15:49:13;21.80;93.60
43043;DHT22;28667;50.758;6.096;2023-07-13T15:51:39;21.80;93.50
43043;DHT22;28667;50.758;6.096;2023-07-13T15:54:05;21.80;93.60
43043;DHT22;28667;50.758;6.096;2023-07-13T15:56:35;21.90;93.50
43043;DHT22;28667;50.758;6.096;2023-07-13T15:59:01;22.00;93.20
43043;DHT22;28667;50.758;6.096;2023-07-13T16:01:29;22.00;93.20
43043;DHT22;28667;50.758;6.096;2023-07-13T16:03:55;22.00;93.30
43043;DHT22;28667;50.758;6.096;2023-07-13T16:06:26;22.00;93.50
43043;DHT22;28667;50.758;6.096;2023-07-13T16:08:53;22.00;93.40
43043;DHT22;28667;50.758;6.096;2023-07-13T16:11:32;22.00;93.60
43043;DHT22;28667;50.758;6.096;2023-07-13T16:13:58;22.10;93.40
43043;DHT22;28667;50.758;6.096;2023-07-13T16:16:30;22.20;93.30
43043;DHT22;28667;50.758;6.096;2023-07-13T16:18:57;22.30;93.30
43043;DHT22;28667;50.758;6.096;2023-07-13T16:21:26;22.30;93.30
43043;DHT22;28667;50.758;6.096;2023-07-13T16:23:53;22.30;92.90